ADDS TAF Board (Experimental) INFO Settings

IDs: Format: Expanded Condensed

KPHX - Phoenix/Sky Harbor, AZ, US

Issued at 0525 UTC 31 Mar 2015
Updated at: 0639 UTC 31 Mar 2015
Time0551Z 31/07Z 31/08Z 31/09Z 31/10Z 31/11Z 31/12Z 31/13Z 31/14Z 31/15Z 31/16Z 31/17Z 31/18Z 31/19Z
Type OBS PRVL PRVL PRVL PRVL PRVL PRVL PRVL PRVL PRVL PRVL PRVL PRVL PRVL
VIS 10 >6 >6 >6 >6 >6 >6 >6 >6 >6 >6 >6 >6 >6
CIG -- -- -- -- -- -- -- -- -- -- -- -- -- --
Cover SCT SCT SCT SCT SCT SCT SCT SCT SCT SCT SCT SCT SCT SCT
FltCat VFR VFR VFR VFR VFR VFR VFR VFR VFR VFR VFR VFR VFR VFR
WX -- -- -- -- -- -- -- -- -- -- -- -- -- --
WDir 100 120 120 120 120 120 120 120 120 120 120 120 120 120
WSpd 4 7 7 7 7 7 7 7 7 7 7 7 7 7
WGst -- -- -- -- -- -- -- -- -- -- -- -- -- --
R07/25
XWnd -1 -3 -3 -3 -3 -3 -3 -3 -3 -3 -3 -3 -3 -3
HWnd 4 6 6 6 6 6 6 6 6 6 6 6 6 6
R08/26
XWnd -1 -3 -3 -3 -3 -3 -3 -3 -3 -3 -3 -3 -3 -3
HWnd 4 6 6 6 6 6 6 6 6 6 6 6 6 6

NOTE: TEMPO conditions in [brackets]. Keep in mind TEMPO conditions might be better (lower impact) than prevailing conditions.

Raw TAF
KPHX 310525Z 3106/0106 12007KT P6SM FEW120 SCT200
  FM312100 27014KT P6SM FEW120 FEW250
  FM010300 25010KT P6SM FEW250


Raw METAR
KPHX 310551Z 10004KT 10SM SCT250 26/02 A2990 RMK AO2 SLP108 T02610017 10344 20256 51007
KPHX 310451Z 00000KT 10SM SCT250 28/01 A2990 RMK AO2 SLP107 T02830011
KPHX 310351Z 00000KT 10SM FEW210 SCT250 29/M01 A2989 RMK AO2 SLP106 T02891006

METAR Board
Radar Display
Forecast Discussion

TAF Board Legend

Potential Impact
Threat None Slight Moderate High
Visibility (sm) ≥5.1 5.1>X≥3 3>X≥1 <1
Ceiling (100 ft) ≥30.1 30.1>X≥10 10>X≥5 <5
Wind Speed (kt) <10 10≤X<20 20≤X<30 ≥30
Wind Gust (kt) <15 15≤X<25 25≤X<35 ≥35
Weather No Wx Reported VCTS,-TS,-FZRA,SN TS,FZRA +TS,+FZRA,+SN